Apalachin, New York
Current Conditions -  °F | °C
As of 9:53 PM on Sunday 21 Dec 2014 (Local Time) from KBGM Reporting Station
Overcast Overcast  
Wind Chill: 26°   Ceiling: 1500
Heat Index: 26°   Visibility: 10mi
Dew Point: 20°   Wind: 3mph
Humidity: 78%   Direction: 110°ESE
Pressure: 30.27"   Gusts: NA
Location:  42.07°N, 76.15°W
Report Text: KBGM 220253Z 11003KT 10SM OVC015 M03/M07 A3027 RMK AO2 SLP272 T10331067 56001
Loading
Personal Weather Stations






























Interactive Weather Map New forecast layout! Learn more

10-Day Weather Forecast

Advertisements
Track Severe Weather on mobile